Stations météo

Publicité
Chamonix, France (7469): Température de l'air & dewpoint: 11.02.2019 16:00:00 - 17.02.2019 16:00:00 (CET)Chamonix, France (7469): Vitesse du vent & gusts: 11.02.2019 16:00:00 - 17.02.2019 16:00:00 (CET)Chamonix, France (7469): Direction du vent: 11.02.2019 16:00:00 - 17.02.2019 16:00:00 (CET)Chamonix, France (7469): Quantités de précipitations: 11.02.2019 16:00:00 - 17.02.2019 16:00:00 (CET)
Date & Time tt [°C] td [°C] ff [km/h] ff [knt] fx [km/h] fx [knt] dd rr [mm]
17.02.2019 16:00:00 14,1 -1,5 0 0 5 3 N 0,0
17.02.2019 15:00:00 17,2 -1,0 0 0 8 4 N 0,0
17.02.2019 14:00:00 17,0 -3,2 2 1 4 2 S 0,0
17.02.2019 13:00:00 14,0 -3,3 0 0 2 1 N -
17.02.2019 12:00:00 3,9 3,5 0 0 4 2 N 0,0
17.02.2019 11:00:00 -6,0 -6,7 0 0 2 1 N 0,0
17.02.2019 10:00:00 -6,6 -7,4 0 0 4 2 N 0,0
17.02.2019 09:00:00 -7,2 -8,0 0 0 2 1 N 0,0
17.02.2019 08:00:00 -7,3 -8,1 0 0 4 2 N 0,0
17.02.2019 07:00:00 -7,3 -8,1 0 0 2 1 N -
17.02.2019 06:00:00 -6,9 -7,7 0 0 2 1 N 0,0
17.02.2019 05:00:00 -6,6 -7,3 0 0 4 2 N 0,0
17.02.2019 04:00:00 -6,3 -7,0 0 0 2 1 N 0,0
17.02.2019 03:00:00 -5,8 -6,5 0 0 2 1 N 0,0
17.02.2019 02:00:00 -5,5 -6,2 0 0 2 1 N 0,0
17.02.2019 01:00:00 -5,0 -5,7 0 0 2 1 N -
17.02.2019 00:00:00 -4,5 -5,3 0 0 2 1 N 0,0
16.02.2019 23:00:00 -3,9 -4,9 0 0 4 2 N 0,0
16.02.2019 22:00:00 -3,5 -4,6 0 0 2 1 N 0,0
16.02.2019 21:00:00 -2,9 -4,2 0 0 4 2 N 0,0
16.02.2019 20:00:00 -2,1 -3,8 0 0 4 2 N 0,0
16.02.2019 19:00:00 -0,7 -2,9 0 0 4 2 N -
16.02.2019 18:00:00 1,3 -2,8 0 0 2 1 N 0,0
16.02.2019 17:00:00 7,0 -1,2 0 0 2 1 N 0,0
16.02.2019 16:00:00 11,3 -1,2 0 0 4 2 N 0,0
16.02.2019 15:00:00 17,1 -3,1 0 0 4 2 N 0,0
16.02.2019 14:00:00 16,5 -1,6 0 0 4 2 N 0,0
16.02.2019 13:00:00 13,6 -2,4 0 0 4 2 N -
16.02.2019 12:00:00 3,4 3,1 0 0 4 2 N 0,0
16.02.2019 11:00:00 -5,5 -6,2 0 0 4 2 N 0,0
16.02.2019 10:00:00 -5,9 -6,6 0 0 2 1 N 0,0
16.02.2019 09:00:00 -6,3 -7,0 0 0 4 2 N 0,0
16.02.2019 08:00:00 -6,8 -7,6 2 1 4 2 NNW 0,0
16.02.2019 07:00:00 -6,6 -7,3 0 0 2 1 N -
16.02.2019 06:00:00 -6,3 -7,0 0 0 4 2 N 0,0
16.02.2019 05:00:00 -5,9 -6,6 0 0 4 2 N 0,0
16.02.2019 04:00:00 -5,7 -6,4 0 0 4 2 N 0,0
16.02.2019 03:00:00 -5,4 -6,1 0 0 4 2 N 0,0
16.02.2019 02:00:00 -5,1 -5,6 0 0 4 2 N 0,0
16.02.2019 01:00:00 -4,5 -5,2 0 0 4 2 N -
16.02.2019 00:00:00 -4,1 -4,8 0 0 2 1 N 0,0
15.02.2019 23:00:00 -3,7 -4,4 0 0 4 2 N 0,0
15.02.2019 22:00:00 -3,2 -4,0 0 0 4 2 N 0,0
15.02.2019 21:00:00 -2,7 -3,8 0 0 4 2 N 0,0
15.02.2019 20:00:00 -2,0 -3,4 0 0 4 2 N 0,0
15.02.2019 19:00:00 -0,8 -2,7 0 0 2 1 N -
15.02.2019 18:00:00 1,2 -1,9 0 0 4 2 N 0,0
15.02.2019 17:00:00 6,7 -1,0 0 0 4 2 N 0,0
15.02.2019 16:00:00 13,6 -1,6 0 0 8 4 N 0,0
15.02.2019 15:00:00 15,5 -3,0 4 2 9 5 SSW 0,0
15.02.2019 14:00:00 14,4 -3,9 2 1 4 2 WSW 0,0
15.02.2019 13:00:00 11,5 -2,7 4 2 5 3 SW -
15.02.2019 12:00:00 3,7 2,5 0 0 5 3 N 0,0
15.02.2019 11:00:00 -5,0 -5,7 0 0 5 3 N 0,0
15.02.2019 10:00:00 -5,7 -6,4 0 0 4 2 N 0,0
15.02.2019 09:00:00 -6,2 -6,9 0 0 4 2 N 0,0
15.02.2019 08:00:00 -6,5 -7,2 0 0 4 2 N 0,0
15.02.2019 07:00:00 -6,5 -7,2 0 0 8 4 N -
15.02.2019 06:00:00 -6,2 -6,9 0 0 5 3 N 0,0
15.02.2019 05:00:00 -5,9 -6,4 0 0 8 4 N 0,0
15.02.2019 04:00:00 -5,5 -6,0 0 0 5 3 N 0,0
15.02.2019 03:00:00 -5,2 -5,7 0 0 5 3 N 0,0
15.02.2019 02:00:00 -4,9 -5,6 0 0 5 3 N 0,0
15.02.2019 01:00:00 -4,4 -5,1 0 0 8 4 N -
15.02.2019 00:00:00 -4,1 -4,8 0 0 8 4 N 0,0
14.02.2019 23:00:00 -3,9 -4,6 0 0 5 3 N 0,0
14.02.2019 22:00:00 -3,4 -4,1 2 1 8 4 ENE 0,0
14.02.2019 21:00:00 -3,0 -3,8 0 0 5 3 N 0,0
14.02.2019 20:00:00 -2,4 -3,5 0 0 4 2 N 0,0
14.02.2019 19:00:00 -1,2 -2,9 0 0 5 3 N -
14.02.2019 18:00:00 0,8 -2,4 0 0 4 2 N 0,0
14.02.2019 17:00:00 7,5 -1,2 0 0 8 4 N 0,0
14.02.2019 16:00:00 11,9 -5,2 2 1 9 5 SSW 0,0
14.02.2019 15:00:00 12,0 -4,6 2 1 9 5 WSW 0,0
14.02.2019 14:00:00 12,6 -4,1 4 2 9 5 SSW 0,0
14.02.2019 13:00:00 11,8 0,8 2 1 5 3 S -
14.02.2019 12:00:00 2,6 2,5 0 0 4 2 N 0,0
14.02.2019 11:00:00 -6,2 -7,0 0 0 0 0 N 0,0
14.02.2019 10:00:00 -6,8 -7,6 0 0 4 2 N 0,0
14.02.2019 09:00:00 -7,3 -8,1 0 0 2 1 N 0,0
14.02.2019 08:00:00 -7,8 -8,6 0 0 0 0 N 0,0
14.02.2019 07:00:00 -7,9 -8,8 0 0 2 1 N -
14.02.2019 06:00:00 -7,7 -8,6 0 0 2 1 N 0,0
14.02.2019 05:00:00 -7,4 -8,2 0 0 2 1 N 0,0
14.02.2019 04:00:00 -7,1 -7,9 0 0 0 0 N 0,0
14.02.2019 03:00:00 -6,7 -7,5 0 0 4 2 N 0,0
14.02.2019 02:00:00 -6,3 -7,1 0 0 4 2 N 0,0
14.02.2019 01:00:00 -5,9 -6,6 0 0 0 0 N -
14.02.2019 00:00:00 -5,2 -5,9 0 0 4 2 N 0,0
13.02.2019 23:00:00 -4,7 -5,2 0 0 2 1 N 0,0
13.02.2019 22:00:00 -4,2 -4,9 0 0 2 1 N 0,0
13.02.2019 21:00:00 -3,6 -4,1 0 0 5 3 N 0,0
13.02.2019 20:00:00 -2,9 -3,6 0 0 2 1 N 0,0
13.02.2019 19:00:00 -2,1 -3,1 0 0 4 2 N -
13.02.2019 18:00:00 -0,3 -2,7 0 0 4 2 N 0,0
13.02.2019 17:00:00 6,6 -1,6 4 2 13 7 S 0,0
13.02.2019 16:00:00 8,6 -1,8 4 2 9 5 SSW 0,0
13.02.2019 15:00:00 10,6 -3,5 4 2 9 5 SSW 0,0
13.02.2019 14:00:00 10,8 -4,9 0 0 8 4 N 0,0
13.02.2019 13:00:00 7,6 -3,9 4 2 5 3 SSW -
13.02.2019 12:00:00 -0,5 -0,8 0 0 4 2 N 0,0
13.02.2019 11:00:00 -8,8 -9,9 0 0 2 1 N 0,0
13.02.2019 10:00:00 -9,5 -10,6 0 0 4 2 N 0,0
13.02.2019 09:00:00 -10,0 -11,1 0 0 4 2 N 0,0
13.02.2019 08:00:00 -10,6 -11,8 0 0 4 2 N 0,0
13.02.2019 07:00:00 -10,6 -11,8 0 0 4 2 N -
13.02.2019 06:00:00 -10,3 -11,5 0 0 4 2 N 0,0
13.02.2019 05:00:00 -10,0 -11,2 0 0 5 3 N 0,0
13.02.2019 04:00:00 -9,5 -10,6 0 0 5 3 N 0,0
13.02.2019 03:00:00 -9,2 -10,3 0 0 9 5 N 0,0
13.02.2019 02:00:00 -9,0 -10,1 2 1 5 3 NE 0,0
13.02.2019 01:00:00 -8,5 -9,4 0 0 5 3 N -
13.02.2019 00:00:00 -7,9 -8,8 0 0 4 2 N 0,0
12.02.2019 23:00:00 -7,5 -8,4 0 0 5 3 N 0,0
12.02.2019 22:00:00 -6,6 -7,4 0 0 4 2 N 0,0
12.02.2019 21:00:00 -5,8 -6,6 0 0 4 2 N 0,0
12.02.2019 20:00:00 -4,9 -5,7 0 0 2 1 N 0,0
12.02.2019 19:00:00 -3,9 -4,9 0 0 4 2 N -
12.02.2019 18:00:00 -2,7 -4,4 0 0 2 1 N 0,0
12.02.2019 17:00:00 2,6 -3,5 0 0 11 6 N 0,0
12.02.2019 16:00:00 3,6 -5,4 5 3 13 7 SW 0,0
12.02.2019 15:00:00 4,2 -5,1 4 2 9 5 SW 0,0
12.02.2019 14:00:00 4,6 -6,0 2 1 8 4 S 0,0
12.02.2019 13:00:00 2,9 -5,8 0 0 8 4 N -
12.02.2019 12:00:00 -1,9 -3,5 0 0 4 2 N 0,0
12.02.2019 11:00:00 -9,6 -10,7 0 0 4 2 N 0,0
12.02.2019 10:00:00 -10,0 -11,2 0 0 4 2 N 0,0
12.02.2019 09:00:00 -10,0 -11,2 2 1 5 3 NE 0,0
12.02.2019 08:00:00 -9,3 -10,4 0 0 4 2 N 0,0
12.02.2019 07:00:00 -8,4 -9,2 0 0 5 3 N -
12.02.2019 06:00:00 -9,4 -10,3 2 1 5 3 NNE 0,0
12.02.2019 05:00:00 -9,4 -10,5 0 0 4 2 N 0,0
12.02.2019 04:00:00 -8,5 -9,6 0 0 4 2 N 0,0
12.02.2019 03:00:00 -6,5 -7,2 2 1 5 3 NNE 0,0
12.02.2019 02:00:00 -7,0 -7,9 0 0 11 6 N 0,0
12.02.2019 01:00:00 -6,0 -6,8 4 2 15 8 S -
12.02.2019 00:00:00 -5,5 -6,5 2 1 8 4 ENE 0,0
11.02.2019 23:00:00 -4,2 -5,4 0 0 9 5 N 0,0
11.02.2019 22:00:00 -2,7 -3,4 2 1 9 5 NNE 0,0
11.02.2019 21:00:00 -3,2 -3,9 2 1 8 4 E 0,0
11.02.2019 20:00:00 -2,6 -3,1 2 1 8 4 NW 0,0
11.02.2019 19:00:00 -2,6 -3,6 0 0 4 2 N -
11.02.2019 18:00:00 -1,2 -2,6 0 0 9 5 N 0,0
11.02.2019 17:00:00 -0,8 -2,7 4 2 16 9 SSW 0,0
11.02.2019 16:00:00 -0,5 -2,4 5 3 16 9 WSW 0,0

tt = Température de l'air
td = dewpoint
ff = Vitesse du vent
fx = gusts
dd = Direction du vent
rr = Quantités de précipitations

stations d'obs. à proximité